Archival Weather

Sydney Intl

Sydney, Australia (YSSY)

Report from: Wednesday, September 20, 2023 5:00 PM AEST
Current time: Tuesday, July 16, 2024 7:26 PM AEST

Current weather – Weather history – Daily summaries
Weather forecast

Temperature34.0°C (93.2°F)
Heat index31.5°C (88.7°F)
Dew point-1.0°C (30.2°F)
Winds 18 kts (9.3 m/s, 20.7 mph) West-Northwest (290°)
Clouds Sky clear
Altimeter29.71 in.Hg (1006 mB)
Relative humidity11 %
Density altitude2,495 ft. (761 m)
Remarks Ceiling and visibility OK
Flight conditions Visual Meteorological Conditions
Raw dataYSSY 200700Z 29018KT CAVOK 34/M01 Q1006
An error has occurred. This application may no longer respond until reloaded. Reload 🗙